createdAt,value
2023-02-28T00:00:26.389Z,49.70
2023-02-28T00:04:54.009Z,63.60
2023-02-28T00:08:56.146Z,53.85
2023-02-28T00:13:05.092Z,60.65
2023-02-28T00:17:07.092Z,66.07
2023-02-28T00:21:09.962Z,60.78
2023-02-28T00:25:14.180Z,61.00
2023-02-28T00:29:16.338Z,65.57
2023-02-28T00:33:20.105Z,62.47
2023-02-28T00:37:23.255Z,67.07
2023-02-28T00:41:25.390Z,57.55
2023-02-28T00:45:27.537Z,59.50
2023-02-28T00:49:29.387Z,64.72
2023-02-28T00:53:33.480Z,62.55
2023-02-28T01:02:20.880Z,68.10
2023-02-28T01:06:22.974Z,78.25
2023-02-28T01:10:26.352Z,74.55
2023-02-28T01:14:28.426Z,79.30
2023-02-28T01:18:30.588Z,68.53
2023-02-28T01:22:32.797Z,70.18
2023-02-28T01:26:34.952Z,61.35
2023-02-28T01:30:37.427Z,67.82
2023-02-28T01:34:39.510Z,63.50
2023-02-28T01:38:41.758Z,58.95
2023-02-28T01:42:43.831Z,60.22
2023-02-28T01:46:45.860Z,62.30
2023-02-28T01:50:50.628Z,52.97
2023-02-28T01:54:56.724Z,60.65
2023-02-28T01:58:58.765Z,61.50
2023-02-28T02:03:07.261Z,58.15
2023-02-28T02:07:13.109Z,66.60
2023-02-28T02:11:20.055Z,78.03
2023-02-28T02:15:40.562Z,62.70
2023-02-28T02:20:02.733Z,67.97
2023-02-28T02:24:18.215Z,62.67
2023-02-28T02:28:53.304Z,65.65
2023-02-28T02:33:10.231Z,62.15
2023-02-28T02:37:15.161Z,61.78
2023-02-28T02:41:29.204Z,64.97
2023-02-28T02:45:44.713Z,64.07
2023-02-28T02:49:53.254Z,60.42
2023-02-28T02:54:02.884Z,59.53
2023-02-28T02:58:11.219Z,58.10
2023-02-28T03:02:16.449Z,48.25
2023-02-28T03:06:18.615Z,57.65
2023-02-28T03:10:36.915Z,50.63
2023-02-28T03:14:53.676Z,53.70
2023-02-28T03:19:18.362Z,54.03
2023-02-28T03:23:42.535Z,75.38
2023-02-28T03:28:06.367Z,244.18
2023-02-28T03:32:25.349Z,61.33
2023-02-28T03:36:31.113Z,60.20
2023-02-28T03:40:35.924Z,62.45
2023-02-28T03:44:45.464Z,50.75
2023-02-28T03:48:58.584Z,65.90
2023-02-28T03:53:20.540Z,57.58
2023-02-28T03:57:41.067Z,48.00
2023-02-28T04:01:45.909Z,55.03
2023-02-28T04:05:54.460Z,57.95
2023-02-28T04:09:57.113Z,55.88
2023-02-28T04:13:59.140Z,49.88
2023-02-28T04:18:01.629Z,53.60
2023-02-28T04:22:04.161Z,50.30
2023-02-28T04:26:06.969Z,49.08
2023-02-28T04:30:09.815Z,54.03
2023-02-28T04:34:11.816Z,60.78
2023-02-28T04:38:13.874Z,52.67
2023-02-28T04:42:16.318Z,47.08
2023-02-28T04:46:19.348Z,48.95
2023-02-28T04:50:21.385Z,55.17
2023-02-28T04:54:23.432Z,54.83
2023-02-28T04:58:26.388Z,54.15
2023-02-28T05:02:28.048Z,55.45
2023-02-28T05:06:32.379Z,58.92
2023-02-28T05:10:34.255Z,103.70
2023-02-28T05:14:36.232Z,95.47
2023-02-28T05:18:38.742Z,101.18
2023-02-28T05:22:41.615Z,78.15
2023-02-28T05:26:44.101Z,70.82
2023-02-28T05:30:46.391Z,73.15
2023-02-28T05:34:48.101Z,68.25
2023-02-28T05:38:51.187Z,83.30
2023-02-28T05:42:53.163Z,82.35
2023-02-28T05:46:55.405Z,81.55
2023-02-28T05:50:58.850Z,86.53
2023-02-28T05:55:00.569Z,97.68
2023-02-28T05:59:02.569Z,97.47
2023-02-28T06:03:04.768Z,86.55
2023-02-28T06:07:06.838Z,96.97
2023-02-28T06:11:08.788Z,87.97
2023-02-28T06:15:15.570Z,98.20
2023-02-28T06:19:18.077Z,65.77
2023-02-28T06:23:19.998Z,85.45
2023-02-28T06:27:21.610Z,89.50
2023-02-28T06:31:24.233Z,81.43
2023-02-28T06:35:26.478Z,101.25
2023-02-28T06:39:29.959Z,79.97
2023-02-28T06:43:34.948Z,78.20
2023-02-28T06:47:38.367Z,69.32
2023-02-28T06:51:42.642Z,64.10
2023-02-28T06:55:44.863Z,71.63
2023-02-28T06:59:47.008Z,54.00
2023-02-28T07:03:53.065Z,44.45
2023-02-28T07:07:55.054Z,39.00
2023-02-28T07:11:57.285Z,40.80
2023-02-28T07:16:01.728Z,41.80
2023-02-28T07:20:05.513Z,33.42
2023-02-28T07:24:07.587Z,33.40
2023-02-28T07:28:09.487Z,28.67
2023-02-28T07:32:11.618Z,24.60
2023-02-28T07:36:18.060Z,33.55
2023-02-28T07:40:20.217Z,18.55
2023-02-28T07:44:22.140Z,24.38
2023-02-28T07:48:24.188Z,28.17
2023-02-28T07:52:26.286Z,17.50
2023-02-28T07:56:28.680Z,14.50
2023-02-28T08:00:32.785Z,21.02
2023-02-28T08:04:35.055Z,23.20
2023-02-28T08:08:37.015Z,17.50
2023-02-28T08:12:38.994Z,18.45
2023-02-28T08:16:40.981Z,21.58
2023-02-28T08:20:43.068Z,22.23
2023-02-28T08:24:45.396Z,23.00
2023-02-28T08:28:47.414Z,19.83
2023-02-28T08:32:49.451Z,20.83
2023-02-28T08:36:51.133Z,22.13
2023-02-28T08:41:00.395Z,25.25
2023-02-28T08:45:02.420Z,24.70
2023-02-28T08:49:04.512Z,22.50
2023-02-28T08:53:06.426Z,18.98
2023-02-28T08:57:08.342Z,24.52
2023-02-28T09:01:13.130Z,26.42
2023-02-28T09:05:15.149Z,21.83
2023-02-28T09:09:17.136Z,27.77
2023-02-28T09:13:20.051Z,23.83
2023-02-28T09:17:22.052Z,21.27
2023-02-28T09:21:24.250Z,25.48
2023-02-28T09:25:26.329Z,25.90
2023-02-28T09:29:28.292Z,20.58
2023-02-28T09:33:30.278Z,25.80
2023-02-28T09:37:32.217Z,18.15
2023-02-28T09:41:51.421Z,23.67
2023-02-28T09:46:05.377Z,21.40
2023-02-28T09:50:24.252Z,19.98
2023-02-28T09:54:30.408Z,20.20
2023-02-28T09:58:41.144Z,22.13
2023-02-28T10:03:28.072Z,28.88
2023-02-28T10:07:48.653Z,22.15
2023-02-28T10:11:55.194Z,22.38
2023-02-28T10:20:30.939Z,36.75
2023-02-28T10:24:44.269Z,24.98
2023-02-28T10:28:46.560Z,27.00
2023-02-28T10:32:54.764Z,16.63
2023-02-28T10:41:10.503Z,23.83
2023-02-28T10:45:18.073Z,21.02
2023-02-28T10:49:30.254Z,26.27
2023-02-28T10:53:52.696Z,21.20
2023-02-28T10:57:59.061Z,27.85
2023-02-28T11:02:01.474Z,22.52
2023-02-28T11:06:09.790Z,20.60
2023-02-28T11:14:26.970Z,30.55
2023-02-28T11:18:35.154Z,26.75
2023-02-28T11:22:45.483Z,25.23
2023-02-28T11:26:52.234Z,28.70
2023-02-28T11:31:17.230Z,28.55
2023-02-28T11:35:30.601Z,27.92
2023-02-28T11:39:35.425Z,30.52
2023-02-28T11:44:09.334Z,28.45
2023-02-28T11:48:20.245Z,30.13
2023-02-28T11:52:37.469Z,38.70
2023-02-28T11:56:48.632Z,28.40
2023-02-28T12:00:56.694Z,34.42
2023-02-28T12:05:24.532Z,31.63
2023-02-28T12:09:42.096Z,28.38
2023-02-28T12:14:14.425Z,29.88
2023-02-28T12:18:24.216Z,29.73
2023-02-28T12:22:43.296Z,27.58
2023-02-28T12:26:47.464Z,32.47
2023-02-28T12:31:27.928Z,27.35
2023-02-28T12:35:38.875Z,28.85
2023-02-28T12:39:50.527Z,27.92
2023-02-28T12:44:01.446Z,34.53
2023-02-28T12:48:07.287Z,29.65
2023-02-28T12:52:13.629Z,30.77
2023-02-28T12:56:24.834Z,29.15
2023-02-28T13:00:34.509Z,26.63
2023-02-28T13:04:55.143Z,25.70
2023-02-28T13:09:13.470Z,24.63
2023-02-28T13:13:18.697Z,39.47
2023-02-28T13:17:22.925Z,35.95
2023-02-28T13:21:31.138Z,29.98
2023-02-28T13:25:42.459Z,28.17
2023-02-28T13:29:45.495Z,23.50
2023-02-28T13:34:03.293Z,27.80
2023-02-28T13:38:16.969Z,34.95
2023-02-28T13:42:22.243Z,27.30
2023-02-28T13:46:24.465Z,33.10
2023-02-28T13:50:26.497Z,36.30
2023-02-28T13:54:46.721Z,31.92
2023-02-28T13:58:59.537Z,24.48
2023-02-28T14:03:12.687Z,32.60
2023-02-28T14:07:22.181Z,47.85
2023-02-28T14:11:34.047Z,25.20
2023-02-28T14:16:01.769Z,29.50
2023-02-28T14:20:04.685Z,30.58
2023-02-28T14:24:21.630Z,27.08
2023-02-28T14:28:40.597Z,26.70
2023-02-28T14:33:16.549Z,28.90
2023-02-28T14:37:26.883Z,28.15
2023-02-28T14:41:37.986Z,31.52
2023-02-28T14:45:40.202Z,28.63
2023-02-28T14:49:47.722Z,49.25
2023-02-28T14:53:57.057Z,31.47
2023-02-28T14:58:07.368Z,30.45
2023-02-28T15:02:27.093Z,34.50
2023-02-28T15:06:31.473Z,32.72
2023-02-28T15:10:34.980Z,35.80
2023-02-28T15:14:39.277Z,33.85
2023-02-28T15:19:00.459Z,22.40
2023-02-28T15:23:03.058Z,27.50
2023-02-28T15:27:10.832Z,27.05
2023-02-28T15:31:56.636Z,39.25
2023-02-28T15:36:15.448Z,42.53
2023-02-28T15:40:25.071Z,35.60
2023-02-28T15:44:30.932Z,39.58
2023-02-28T15:48:55.964Z,52.60
2023-02-28T15:52:58.580Z,28.83
2023-02-28T15:57:09.538Z,45.10
2023-02-28T16:01:20.456Z,41.83
2023-02-28T16:05:32.741Z,36.47
2023-02-28T16:09:35.441Z,41.65
2023-02-28T16:13:38.276Z,36.03
2023-02-28T16:17:40.482Z,34.63
2023-02-28T16:21:42.557Z,32.08
2023-02-28T16:25:47.261Z,37.03
2023-02-28T16:29:49.586Z,32.45
2023-02-28T16:33:51.821Z,43.75
2023-02-28T16:37:54.896Z,37.47
2023-02-28T16:41:56.957Z,40.92
2023-02-28T16:46:01.327Z,40.03
2023-02-28T16:50:14.071Z,47.22
2023-02-28T16:54:15.941Z,39.92
2023-02-28T16:58:18.629Z,40.05
2023-02-28T17:02:21.185Z,42.95
2023-02-28T17:06:26.143Z,37.97
2023-02-28T17:10:28.369Z,56.88
2023-02-28T17:14:30.609Z,49.42
2023-02-28T17:18:34.803Z,52.92
2023-02-28T17:22:36.937Z,67.32
2023-02-28T17:26:40.810Z,70.07
2023-02-28T17:30:48.196Z,60.92
2023-02-28T17:34:50.485Z,55.42
2023-02-28T17:38:54.277Z,55.45
2023-02-28T17:42:57.756Z,60.53
2023-02-28T17:47:00.141Z,59.38
2023-02-28T17:51:02.178Z,65.75
2023-02-28T17:55:05.252Z,63.85
2023-02-28T17:59:10.865Z,71.82
2023-02-28T18:03:14.412Z,66.18
2023-02-28T18:07:16.665Z,65.70
2023-02-28T18:11:20.550Z,54.85
2023-02-28T18:15:22.857Z,63.35
2023-02-28T18:19:25.054Z,64.50
2023-02-28T18:23:27.137Z,56.00
2023-02-28T18:27:29.363Z,63.95
2023-02-28T18:31:34.772Z,54.15
2023-02-28T18:35:37.253Z,57.85
2023-02-28T18:39:39.773Z,65.88
2023-02-28T18:43:42.108Z,56.67
2023-02-28T18:47:44.047Z,63.88
2023-02-28T18:51:46.799Z,102.80
2023-02-28T18:55:48.793Z,105.90
2023-02-28T18:59:50.983Z,122.88
2023-02-28T19:03:52.992Z,93.97
2023-02-28T19:07:55.062Z,107.53
2023-02-28T19:11:57.685Z,97.63
2023-02-28T19:16:04.774Z,147.20
2023-02-28T19:20:08.248Z,191.43
2023-02-28T19:24:10.398Z,543.65
2023-02-28T19:28:12.985Z,546.78
2023-02-28T19:32:15.846Z,539.17
2023-02-28T19:36:17.827Z,475.50
2023-02-28T19:40:19.985Z,487.77
2023-02-28T19:44:21.896Z,407.42
2023-02-28T19:48:25.188Z,364.85
2023-02-28T19:52:27.263Z,296.13
2023-02-28T19:56:29.291Z,234.10
2023-02-28T20:00:30.999Z,254.07
2023-02-28T20:04:33.109Z,202.98
2023-02-28T20:08:36.823Z,211.13
2023-02-28T20:12:38.998Z,189.27
2023-02-28T20:16:41.420Z,176.77
2023-02-28T20:20:43.532Z,178.65
2023-02-28T20:24:46.261Z,164.02
2023-02-28T20:28:48.383Z,172.75
2023-02-28T20:32:50.300Z,185.10
2023-02-28T20:36:52.511Z,172.50
2023-02-28T20:40:56.321Z,187.18
2023-02-28T20:44:58.378Z,193.00
2023-02-28T20:49:00.378Z,188.45
2023-02-28T20:53:02.419Z,190.82
2023-02-28T20:57:04.335Z,193.35
2023-02-28T21:01:18.386Z,180.10
2023-02-28T21:05:20.429Z,185.77
2023-02-28T21:09:22.409Z,196.52
2023-02-28T21:13:24.378Z,176.10
2023-02-28T21:17:28.109Z,168.52
2023-02-28T21:21:32.448Z,188.00
2023-02-28T21:25:34.488Z,221.98
2023-02-28T21:29:36.541Z,244.18
2023-02-28T21:33:38.826Z,201.48
2023-02-28T21:37:40.656Z,192.82
2023-02-28T21:41:42.758Z,186.57
2023-02-28T21:45:44.666Z,190.00
2023-02-28T21:49:46.669Z,173.40
2023-02-28T21:53:49.841Z,182.40
2023-02-28T21:57:51.882Z,183.00
2023-02-28T22:01:55.395Z,183.32
2023-02-28T22:05:57.503Z,175.95
2023-02-28T22:09:59.168Z,183.35
2023-02-28T22:14:01.661Z,195.63
2023-02-28T22:18:03.768Z,208.30
2023-02-28T22:22:05.748Z,183.75
2023-02-28T22:26:10.556Z,188.52
2023-02-28T22:30:12.955Z,204.70
2023-02-28T22:34:14.939Z,201.75
2023-02-28T22:38:17.010Z,205.55
2023-02-28T22:42:18.979Z,183.85
2023-02-28T22:46:22.791Z,196.80
2023-02-28T22:50:25.582Z,214.73
2023-02-28T22:54:27.686Z,202.15
2023-02-28T22:58:30.278Z,182.73
2023-02-28T23:02:32.837Z,192.77
2023-02-28T23:06:41.974Z,190.38
2023-02-28T23:10:43.994Z,183.27
2023-02-28T23:14:46.002Z,190.05
2023-02-28T23:18:48.137Z,193.18
2023-02-28T23:22:50.570Z,208.73
2023-02-28T23:26:54.774Z,199.98
2023-02-28T23:31:04.471Z,225.77
2023-02-28T23:35:10.981Z,223.35
2023-02-28T23:39:16.139Z,194.60
2023-02-28T23:43:18.774Z,193.10
2023-02-28T23:47:20.919Z,208.43
2023-02-28T23:51:22.995Z,186.95
2023-02-28T23:55:25.925Z,187.27
2023-02-28T23:59:28.234Z,179.40
